Dades meteomassalio
Diari Summary for Febrer 15, 2017 Units:  English    Metric   Both
« Previous Day
Next Day »
Diari Semanal Mensual Anual Personalitzat
  Maxima: Minima: Mijana:
Temperatura: TemperatureC °F 0.9 °F 8.1 °F
Rosada: DewpointC °F 0.1 °F 5.6 °F
Humitat: Humidity % 65 % 85 %
Velocitat del vent: WindSpeedKMH mph 0.0 mph 1.6 mph
Racha vent: WindSpeedGustKMH mph - -
Vent:- - NE
Pressio: PressurehPa in 1029.7 in -
Pluja: 0.3 in    
Historical Graphs
 
 
Tabular Data for Febrer 15, 2017
Time Temperature Dew Point Pressure Wind Wind Speed Wind Gust Humidity Rainfall Rate (Hourly) solar Conditions
TemperatureC °F DewpointC °F PressurehPa in Calm     Humidity % HourlyPrecipMM in SolarRadiationWatts/m^2 W/m2 Conditions
00:02 4.7 °F 3.6 °F 1029.7 in Calm     92 % 0.0 in 0.0 W/m2 RA
00:07 4.6 °F 3.4 °F 1030.0 in Calm     92 % 0.0 in 0.0 W/m2 CLR
00:12 4.6 °F 3.4 °F 1030.0 in Calm     92 % 0.0 in 0.0 W/m2 CLR
00:17 4.5 °F 3.3 °F 1030.0 in Calm     92 % 0.0 in 0.0 W/m2 CLR
00:22 4.4 °F 3.2 °F 1030.0 in Calm     92 % 0.0 in 0.0 W/m2 CLR
00:27 4.3 °F 3.1 °F 1030.0 in Calm     92 % 0.0 in 0.0 W/m2 CLR
00:32 4.1 °F 2.9 °F 1030.4 in Calm     92 % 0.0 in 0.0 W/m2 CLR
00:37 4.0 °F 2.8 °F 1030.4 in Calm     92 % 0.0 in 0.0 W/m2 CLR
00:42 3.9 °F 2.8 °F 1030.4 in Calm     92 % 0.0 in 0.0 W/m2 CLR
00:47 3.9 °F 2.7 °F 1030.4 in Calm     92 % 0.0 in 0.0 W/m2 CLR
00:53 3.8 °F 2.8 °F 1030.4 in Calm     93 % 0.0 in 0.0 W/m2 CLR
00:57 3.9 °F 2.9 °F 1030.4 in Calm     93 % 0.0 in 0.0 W/m2 CLR
01:03 4.1 °F 3.1 °F 1030.4 in Calm     93 % 0.0 in 0.0 W/m2 CLR
01:08 4.1 °F 3.1 °F 1030.7 in Calm     93 % 0.0 in 0.0 W/m2 CLR
01:13 3.9 °F 2.9 °F 1030.7 in Calm     93 % 0.0 in 0.0 W/m2 CLR
01:18 4.0 °F 2.9 °F 1030.7 in Calm     93 % 0.0 in 0.0 W/m2 CLR
01:23 4.1 °F 3.0 °F 1030.7 in Calm     93 % 0.0 in 0.0 W/m2 CLR
01:28 4.1 °F 3.1 °F 1031.0 in Calm     93 % 0.0 in 0.0 W/m2 CLR
01:33 4.0 °F 2.9 °F 1031.0 in Calm     93 % 0.0 in 0.0 W/m2 CLR
01:38 3.9 °F 2.8 °F 1031.0 in Calm     93 % 0.0 in 0.0 W/m2 CLR
01:43 3.8 °F 2.8 °F 1031.0 in Calm     93 % 0.0 in 0.0 W/m2 CLR
01:48 3.9 °F 2.9 °F 1031.0 in Calm     93 % 0.0 in 0.0 W/m2 CLR
01:53 3.8 °F 2.8 °F 1031.0 in Calm     93 % 0.0 in 0.0 W/m2 CLR
01:58 3.7 °F 2.7 °F 1031.0 in Calm     93 % 0.0 in 0.0 W/m2 CLR
02:03 3.6 °F 2.6 °F 1031.0 in Calm     93 % 0.0 in 0.0 W/m2 CLR
02:08 3.5 °F 2.5 °F 1031.0 in Calm     93 % 0.0 in 0.0 W/m2 CLR
02:13 3.4 °F 2.4 °F 1031.4 in Calm     93 % 0.0 in 0.0 W/m2 CLR
02:18 3.3 °F 2.3 °F 1031.4 in Calm     93 % 0.0 in 0.0 W/m2 CLR
02:23 3.3 °F 2.3 °F 1031.4 in Calm     93 % 0.0 in 0.0 W/m2 CLR
02:28 3.2 °F 2.2 °F 1031.4 in Calm     93 % 0.0 in 0.0 W/m2 CLR
02:33 3.1 °F 2.1 °F 1031.4 in Calm     93 % 0.0 in 0.0 W/m2 CLR
02:38 3.0 °F 2.0 °F 1031.4 in Calm     93 % 0.0 in 0.0 W/m2 CLR
02:43 2.9 °F 1.9 °F 1031.4 in Calm     93 % 0.0 in 0.0 W/m2 CLR
02:48 2.8 °F 1.8 °F 1031.4 in Calm     93 % 0.0 in 0.0 W/m2 CLR
02:53 2.8 °F 1.8 °F 1031.4 in Calm     93 % 0.0 in 0.0 W/m2 CLR
02:58 2.8 °F 1.8 °F 1031.4 in Calm     93 % 0.0 in 0.0 W/m2 CLR
03:03 2.8 °F 1.8 °F 1031.4 in Calm     93 % 0.0 in 0.0 W/m2 CLR
03:08 2.7 °F 1.7 °F 1031.4 in Calm     93 % 0.0 in 0.0 W/m2 CLR
03:13 2.7 °F 1.7 °F 1031.4 in Calm     93 % 0.0 in 0.0 W/m2 CLR
03:18 2.7 °F 1.7 °F 1031.7 in Calm     93 % 0.0 in 0.0 W/m2 CLR
03:23 2.7 °F 1.7 °F 1031.7 in Calm     93 % 0.0 in 0.0 W/m2 CLR
03:28 2.6 °F 1.6 °F 1031.7 in Calm     93 % 0.0 in 0.0 W/m2 CLR
03:33 2.4 °F 1.4 °F 1031.7 in Calm     93 % 0.0 in 0.0 W/m2 CLR
03:38 2.4 °F 1.4 °F 1031.7 in Calm     93 % 0.0 in 0.0 W/m2 CLR
03:43 2.4 °F 1.4 °F 1031.7 in Calm     93 % 0.0 in 0.0 W/m2 CLR
03:48 2.4 °F 1.4 °F 1031.7 in Calm     93 % 0.0 in 0.0 W/m2 CLR
03:53 2.5 °F 1.5 °F 1031.7 in Calm     93 % 0.0 in 0.0 W/m2 CLR
03:58 2.6 °F 1.6 °F 1031.7 in Calm     93 % 0.0 in 0.0 W/m2 CLR
04:03 2.6 °F 1.7 °F 1031.7 in Calm     94 % 0.0 in 0.0 W/m2 CLR
04:08 2.6 °F 1.7 °F 1031.7 in Calm     94 % 0.0 in 0.0 W/m2 CLR
04:13 2.6 °F 1.7 °F 1031.7 in Calm     94 % 0.0 in 0.0 W/m2 CLR
04:18 2.6 °F 1.6 °F 1031.7 in Calm     93 % 0.0 in 0.0 W/m2 CLR
04:23 2.5 °F 1.5 °F 1031.7 in Calm     93 % 0.0 in 0.0 W/m2 CLR
04:28 2.4 °F 1.4 °F 1031.7 in Calm     93 % 0.0 in 0.0 W/m2 CLR
04:33 2.3 °F 1.3 °F 1031.7 in Calm     93 % 0.0 in 0.0 W/m2 CLR
04:38 2.3 °F 1.3 °F 1031.7 in Calm     93 % 0.0 in 0.0 W/m2 CLR
04:43 2.2 °F 1.2 °F 1031.7 in Calm     93 % 0.0 in 0.0 W/m2 CLR
04:48 2.1 °F 1.1 °F 1031.7 in Calm     93 % 0.0 in 0.0 W/m2 CLR
04:53 2.1 °F 1.1 °F 1031.7 in Calm     93 % 0.0 in 0.0 W/m2 CLR
04:58 2.0 °F 1.0 °F 1031.7 in Calm     93 % 0.3 in 0.0 W/m2 RA
05:03 1.9 °F 0.9 °F 1031.7 in Calm     93 % 0.3 in 0.0 W/m2 CLR
05:08 1.9 °F 1.0 °F 1031.7 in Calm     94 % 0.3 in 0.0 W/m2 CLR
05:13 1.9 °F 0.9 °F 1031.7 in Calm     93 % 0.3 in 0.0 W/m2 CLR
05:18 1.8 °F 0.8 °F 1032.1 in Calm     93 % 0.3 in 0.0 W/m2 CLR
05:23 1.7 °F 0.7 °F 1032.1 in Calm     93 % 0.3 in 0.0 W/m2 CLR
05:28 1.7 °F 0.7 °F 1032.1 in Calm     93 % 0.3 in 0.0 W/m2 CLR
05:33 1.7 °F 0.8 °F 1032.1 in Calm     94 % 0.3 in 0.0 W/m2 CLR
05:38 1.7 °F 0.8 °F 1032.1 in Calm     94 % 0.3 in 0.0 W/m2 CLR
05:43 1.6 °F 0.7 °F 1032.1 in Calm     94 % 0.3 in 0.0 W/m2 CLR
05:48 1.5 °F 0.5 °F 1032.1 in Calm     93 % 0.3 in 0.0 W/m2 CLR
05:53 1.5 °F 0.5 °F 1032.1 in Calm     93 % 0.3 in 0.0 W/m2 CLR
05:58 1.4 °F 0.6 °F 1032.1 in Calm     94 % 0.0 in 0.0 W/m2 CLR
06:03 1.4 °F 0.6 °F 1032.1 in Calm     94 % 0.0 in 0.0 W/m2 CLR
06:08 1.5 °F 0.7 °F 1032.4 in Calm     94 % 0.0 in 0.0 W/m2 CLR
06:13 1.4 °F 0.6 °F 1032.4 in Calm     94 % 0.0 in 0.0 W/m2 CLR
06:18 1.4 °F 0.6 °F 1032.4 in Calm     94 % 0.0 in 0.0 W/m2 CLR
06:23 1.3 °F 0.5 °F 1032.4 in Calm     94 % 0.0 in 0.0 W/m2 CLR
06:28 1.3 °F 0.4 °F 1032.7 in Calm     94 % 0.0 in 0.0 W/m2 CLR
06:33 1.2 °F 0.2 °F 1032.7 in Calm     93 % 0.0 in 0.0 W/m2 CLR
06:38 1.2 °F 0.4 °F 1032.7 in Calm     94 % 0.0 in 0.0 W/m2 CLR
06:43 1.3 °F 0.4 °F 1032.7 in Calm     94 % 0.0 in 0.0 W/m2 CLR
06:48 1.3 °F 0.4 °F 1032.7 in Calm     94 % 0.0 in 0.0 W/m2 CLR
06:53 1.3 °F 0.5 °F 1032.7 in Calm     94 % 0.0 in 0.0 W/m2 CLR
06:58 1.3 °F 0.5 °F 1032.7 in Calm     94 % 0.0 in 0.0 W/m2 CLR
07:03 1.3 °F 0.4 °F 1032.7 in Calm     94 % 0.0 in 0.0 W/m2 CLR
07:08 1.2 °F 0.2 °F 1032.7 in Calm     93 % 0.0 in 0.0 W/m2 CLR
07:13 1.1 °F 0.3 °F 1033.1 in Calm     94 % 0.0 in 0.0 W/m2 CLR
07:19 1.2 °F 0.3 °F 1032.7 in Calm     94 % 0.0 in 0.0 W/m2 CLR
07:24 1.2 °F 0.4 °F 1033.1 in Calm     94 % 0.0 in 0.0 W/m2 CLR
07:29 1.3 °F 0.4 °F 1033.1 in Calm     94 % 0.0 in 0.0 W/m2 CLR
07:34 1.3 °F 0.4 °F 1033.1 in Calm     94 % 0.0 in 0.0 W/m2 CLR
07:39 1.2 °F 0.3 °F 1033.1 in Calm     94 % 0.0 in 0.0 W/m2 CLR
07:44 1.2 °F 0.3 °F 1033.1 in Calm     94 % 0.0 in 0.0 W/m2 OVC
07:49 1.2 °F 0.4 °F 1033.1 in Calm     94 % 0.0 in 0.0 W/m2 OVC
07:54 1.1 °F 0.2 °F 1033.1 in Calm     94 % 0.0 in 5.0 W/m2 OVC
07:59 1.0 °F 0.2 °F 1033.1 in Calm     94 % 0.0 in 5.0 W/m2 OVC
08:04 1.0 °F 0.2 °F 1033.1 in Calm     94 % 0.0 in 11.0 W/m2 BKN
08:09 0.9 °F 0.1 °F 1033.4 in Calm     94 % 0.0 in 14.0 W/m2 BKN
08:14 1.1 °F 0.2 °F 1033.4 in Calm     94 % 0.0 in 18.0 W/m2 BKN
08:19 1.3 °F 0.5 °F 1033.4 in Calm     94 % 0.0 in 23.0 W/m2 BKN
08:24 1.4 °F 0.6 °F 1033.4 in Calm     94 % 0.0 in 28.0 W/m2 BKN
08:29 1.6 °F 0.7 °F 1033.7 in Calm     94 % 0.0 in 40.0 W/m2 BKN
08:34 1.8 °F 0.9 °F 1033.4 in Calm     94 % 0.0 in 51.0 W/m2 SCT
08:39 2.0 °F 1.1 °F 1033.7 in Calm     94 % 0.0 in 63.0 W/m2 SCT
08:44 2.1 °F 1.2 °F 1033.7 in Calm     94 % 0.0 in 84.0 W/m2 FEW
08:49 2.1 °F 1.2 °F 1033.7 in Calm     94 % 0.0 in 88.0 W/m2 FEW
08:54 2.3 °F 1.4 °F 1033.7 in Calm     94 % 0.0 in 104.0 W/m2 CLR
08:59 2.7 °F 1.8 °F 1033.7 in Calm     94 % 0.0 in 120.0 W/m2 CLR
09:04 2.9 °F 2.1 °F 1033.7 in Calm     94 % 0.0 in 127.0 W/m2 CLR
09:09 3.1 °F 2.2 °F 1033.7 in Calm     94 % 0.0 in 165.0 W/m2 CLR
09:14 3.2 °F 2.3 °F 1033.7 in Calm     94 % 0.0 in 176.0 W/m2 CLR
09:19 3.5 °F 2.6 °F 1033.7 in Calm     94 % 0.0 in 127.0 W/m2 CLR
09:24 3.8 °F 2.9 °F 1034.1 in Calm     94 % 0.0 in 172.0 W/m2 CLR
09:29 4.1 °F 3.2 °F 1034.1 in Calm     94 % 0.0 in 186.0 W/m2 CLR
09:34 4.4 °F 3.6 °F 1034.1 in Calm     94 % 0.0 in 218.0 W/m2 CLR
09:39 4.8 °F 3.9 °F 1034.1 in Calm     94 % 0.0 in 243.0 W/m2 CLR
09:44 5.1 °F 4.2 °F 1034.1 in Calm     94 % 0.0 in 211.0 W/m2 CLR
09:49 5.6 °F 4.7 °F 1034.1 in Calm     94 % 0.0 in 260.0 W/m2 CLR
09:54 5.9 °F 4.9 °F 1034.1 in Calm     93 % 0.0 in 299.0 W/m2 CLR
09:59 6.1 °F 5.1 °F 1034.1 in Calm     93 % 0.0 in 318.0 W/m2 CLR
10:04 6.6 °F 5.5 °F 1034.1 in Calm     93 % 0.0 in 279.0 W/m2 CLR
10:09 6.9 °F 5.7 °F 1034.1 in Calm     92 % 0.0 in 366.0 W/m2 CLR
10:14 7.2 °F 5.8 °F 1034.1 in Calm     91 % 0.0 in 243.0 W/m2 CLR
10:19 7.4 °F 6.0 °F 1034.1 in Calm     91 % 0.0 in 320.0 W/m2 CLR
10:24 7.8 °F 6.4 °F 1034.1 in Calm     91 % 0.0 in 371.0 W/m2 CLR
10:29 8.1 °F 6.3 °F 1034.1 in Calm     89 % 0.0 in 272.0 W/m2 CLR
10:34 8.3 °F 6.6 °F 1034.1 in Calm     89 % 0.0 in 374.0 W/m2 CLR
10:39 8.7 °F 6.8 °F 1034.1 in Calm     88 % 0.0 in 401.0 W/m2 CLR
10:44 9.1 °F 7.0 °F 1034.1 in Calm     87 % 0.0 in 406.0 W/m2 CLR
10:49 9.6 °F 7.6 °F 1034.1 in Calm     87 % 0.0 in 411.0 W/m2 CLR
10:54 10.1 °F 7.9 °F 1034.1 in Calm     86 % 0.0 in 415.0 W/m2 CLR
10:59 10.4 °F 7.8 °F 1033.7 in Calm     84 % 0.0 in 439.0 W/m2 CLR
11:04 10.7 °F 7.9 °F 1033.7 in Calm     83 % 0.0 in 448.0 W/m2 CLR
11:09 10.9 °F 8.0 °F 1033.7 in Calm     82 % 0.0 in 459.0 W/m2 CLR
11:14 11.3 °F 8.5 °F 1033.7 in Calm     83 % 0.0 in 469.0 W/m2 CLR
11:19 11.4 °F 8.5 °F 1033.7 in Calm     82 % 0.0 in 476.0 W/m2 CLR
11:24 11.8 °F 8.8 °F 1033.7 in Calm     82 % 0.0 in 485.0 W/m2 CLR
11:29 12.0 °F 9.0 °F 1033.7 in Calm     82 % 0.0 in 496.0 W/m2 CLR
11:34 12.2 °F 9.2 °F 1033.7 in Calm     82 % 0.0 in 506.0 W/m2 CLR
11:39 12.3 °F 9.3 °F 1033.7 in Calm     82 % 0.0 in 515.0 W/m2 CLR
11:49 12.7 °F 9.3 °F 1033.7 in Calm     80 % 0.0 in 517.0 W/m2 CLR
11:54 12.8 °F 9.1 °F 1033.7 in Calm     78 % 0.0 in 531.0 W/m2 CLR
11:59 13.2 °F 9.6 °F 1033.7 in Calm     79 % 0.0 in 547.0 W/m2 CLR
12:04 13.4 °F 9.2 °F 1033.7 in Calm     76 % 0.0 in 543.0 W/m2 CLR
12:09 13.4 °F 9.3 °F 1033.7 in ENE 3.7 mph 3.7 mph 76 % 0.0 in 554.0 W/m2 CLR
12:14 13.5 °F 9.3 °F 1033.7 in ENE 5.6 mph 5.6 mph 76 % 0.0 in 561.0 W/m2 CLR
12:19 13.5 °F 9.3 °F 1033.4 in ENE 5.6 mph 5.6 mph 76 % 0.0 in 568.0 W/m2 CLR
12:24 13.5 °F 8.9 °F 1033.4 in Calm     74 % 0.0 in 573.0 W/m2 CLR
12:29 13.6 °F 9.6 °F 1033.4 in ENE 5.6 mph 5.6 mph 77 % 0.0 in 571.0 W/m2 CLR
12:34 13.8 °F 9.6 °F 1033.4 in Calm     76 % 0.0 in 582.0 W/m2 CLR
12:39 13.9 °F 9.7 °F 1033.4 in NE 3.7 mph 3.7 mph 76 % 0.0 in 592.0 W/m2 CLR
12:44 14.1 °F 9.7 °F 1033.4 in Calm     75 % 0.0 in 603.0 W/m2 CLR
12:49 14.3 °F 10.1 °F 1033.1 in NE 5.6 mph 5.6 mph 76 % 0.0 in 615.0 W/m2 CLR
12:54 14.4 °F 10.2 °F 1033.1 in ENE 9.3 mph 9.3 mph 76 % 0.0 in 605.0 W/m2 CLR
12:59 14.3 °F 10.1 °F 1033.1 in NE 8.0 mph 8.0 mph 76 % 0.0 in 599.0 W/m2 CLR
13:04 14.3 °F 10.2 °F 1033.1 in NE 9.3 mph 9.3 mph 76 % 0.0 in 594.0 W/m2 CLR
13:09 14.3 °F 10.1 °F 1033.1 in North 5.6 mph 5.6 mph 76 % 0.0 in 591.0 W/m2 CLR
13:14 14.3 °F 10.6 °F 1032.7 in NNE 11.1 mph 11.1 mph 78 % 0.0 in 589.0 W/m2 CLR
13:19 14.2 °F 10.2 °F 1033.1 in NNE 9.3 mph 9.3 mph 77 % 0.0 in 589.0 W/m2 CLR
13:24 14.2 °F 10.4 °F 1032.7 in North 9.3 mph 9.3 mph 78 % 0.0 in 599.0 W/m2 CLR
13:29 14.2 °F 10.1 °F 1032.7 in NNE 13.0 mph 13.0 mph 76 % 0.0 in 594.0 W/m2 CLR
13:34 14.2 °F 10.2 °F 1032.7 in North 5.6 mph 5.6 mph 77 % 0.0 in 587.0 W/m2 CLR
13:39 14.4 °F 10.2 °F 1032.7 in NNE 9.3 mph 9.3 mph 76 % 0.0 in 587.0 W/m2 CLR
13:44 14.6 °F 10.2 °F 1032.4 in ENE 7.4 mph 7.4 mph 75 % 0.0 in 582.0 W/m2 CLR
13:49 14.8 °F 10.1 °F 1032.4 in Calm     73 % 0.0 in 577.0 W/m2 CLR
13:54 14.9 °F 10.3 °F 1032.4 in NNE 7.4 mph 7.4 mph 74 % 0.0 in 557.0 W/m2 CLR
13:59 15.0 °F 10.2 °F 1032.4 in NNE 3.7 mph 3.7 mph 73 % 0.0 in 578.0 W/m2 CLR
14:04 15.1 °F 10.3 °F 1032.4 in ENE 5.6 mph 5.6 mph 73 % 0.0 in 577.0 W/m2 CLR
14:09 15.1 °F 9.9 °F 1032.4 in North 3.7 mph   71 % 0.0 in 573.0 W/m2 CLR
14:14 15.3 °F 10.4 °F 1032.1 in ENE 11.1 mph 11.1 mph 73 % 0.0 in 573.0 W/m2 CLR
14:19 15.3 °F 10.4 °F 1032.1 in ENE 11.1 mph 11.1 mph 73 % 0.0 in 566.0 W/m2 CLR
14:24 15.3 °F 10.5 °F 1032.1 in Calm     73 % 0.0 in 557.0 W/m2 CLR
14:29 15.5 °F 10.4 °F 1032.1 in NE 7.4 mph 7.6 mph 72 % 0.0 in 555.0 W/m2 CLR
14:34 15.4 °F 10.0 °F 1032.1 in Calm     70 % 0.0 in 548.0 W/m2 CLR
14:40 15.6 °F 10.1 °F 1032.1 in Calm     70 % 0.0 in 548.0 W/m2 CLR
14:45 15.7 °F 10.2 °F 1032.1 in NE 3.2 mph 3.2 mph 70 % 0.0 in 543.0 W/m2 CLR
14:50 15.8 °F 10.6 °F 1031.7 in NE 7.4 mph 7.4 mph 71 % 0.0 in 519.0 W/m2 CLR
14:55 15.8 °F 10.4 °F 1031.7 in North 1.9 mph 1.9 mph 70 % 0.0 in 506.0 W/m2 CLR
15:00 15.9 °F 10.7 °F 1032.1 in North 11.1 mph 11.1 mph 71 % 0.0 in 475.0 W/m2 CLR
15:05 16.1 °F 10.8 °F 1032.1 in NE 9.3 mph 9.3 mph 71 % 0.0 in 478.0 W/m2 CLR
15:10 16.1 °F 10.4 °F 1032.1 in ENE 7.4 mph 7.4 mph 69 % 0.0 in 483.0 W/m2 CLR
15:15 16.1 °F 10.4 °F 1031.7 in Calm     69 % 0.0 in 489.0 W/m2 CLR
15:20 16.3 °F 10.8 °F 1031.7 in NE 5.6 mph 5.6 mph 70 % 0.0 in 478.0 W/m2 CLR
15:25 16.3 °F 9.9 °F 1031.7 in NNE 5.6 mph 5.6 mph 66 % 0.0 in 461.0 W/m2 CLR
15:30 16.3 °F 10.1 °F 1031.7 in NNE 8.0 mph 8.0 mph 67 % 0.0 in 450.0 W/m2 CLR
15:35 16.3 °F 10.3 °F 1031.7 in NE 5.6 mph 5.6 mph 68 % 0.0 in 462.0 W/m2 CLR
15:40 16.4 °F 10.7 °F 1031.7 in Calm     69 % 0.0 in 452.0 W/m2 CLR
15:45 16.5 °F 10.3 °F 1031.7 in ENE 6.4 mph 6.4 mph 67 % 0.0 in 397.0 W/m2 CLR
15:50 16.6 °F 10.0 °F 1031.7 in ENE 6.4 mph 6.4 mph 65 % 0.0 in 406.0 W/m2 CLR
15:55 16.5 °F 9.9 °F 1031.7 in ESE 3.7 mph 3.7 mph 65 % 0.0 in 415.0 W/m2 CLR
16:00 16.4 °F 10.2 °F 1031.7 in NNE 7.4 mph 7.4 mph 67 % 0.0 in 313.0 W/m2 CLR
16:05 16.3 °F 10.2 °F 1031.7 in Calm     67 % 0.0 in 374.0 W/m2 CLR
16:10 16.3 °F 9.9 °F 1031.7 in Calm     66 % 0.0 in 350.0 W/m2 CLR
16:15 16.5 °F 9.9 °F 1031.7 in NNE 5.6 mph 5.6 mph 65 % 0.0 in 343.0 W/m2 CLR
16:20 16.7 °F 10.3 °F 1031.7 in NE 9.3 mph 10.0 mph 66 % 0.0 in 323.0 W/m2 CLR
16:25 16.6 °F 10.2 °F 1031.7 in ENE 11.1 mph 11.1 mph 66 % 0.0 in 325.0 W/m2 CLR
16:30 16.4 °F 10.1 °F 1031.7 in NE 13.0 mph 13.0 mph 66 % 0.0 in 323.0 W/m2 CLR
16:35 16.2 °F 10.1 °F 1031.7 in NE 11.1 mph 11.1 mph 67 % 0.0 in 113.0 W/m2 CLR
16:40 16.1 °F 10.0 °F 1031.7 in NE 11.1 mph 11.1 mph 67 % 0.0 in 237.0 W/m2 CLR
16:45 16.1 °F 9.9 °F 1031.7 in Calm     67 % 0.0 in 251.0 W/m2 CLR
16:50 16.1 °F 10.0 °F 1031.7 in NE 9.7 mph 9.7 mph 67 % 0.0 in 234.0 W/m2 CLR
16:55 16.2 °F 10.1 °F 1031.7 in NE 9.7 mph 9.7 mph 67 % 0.0 in 197.0 W/m2 CLR
17:00 16.1 °F 9.8 °F 1031.4 in NE 5.6 mph 5.6 mph 66 % 0.0 in 214.0 W/m2 CLR
17:05 16.1 °F 9.9 °F 1031.4 in NNE 9.3 mph 9.3 mph 67 % 0.0 in 207.0 W/m2 CLR
17:10 16.0 °F 10.1 °F 1031.7 in NNE 5.6 mph 5.6 mph 68 % 0.0 in 195.0 W/m2 CLR
17:15 16.0 °F 10.1 °F 1031.4 in NE 9.3 mph 9.3 mph 68 % 0.0 in 179.0 W/m2 CLR
17:20 15.9 °F 10.2 °F 1031.4 in NE 9.3 mph 9.3 mph 69 % 0.0 in 172.0 W/m2 CLR
17:25 15.8 °F 9.9 °F 1031.4 in ENE 5.6 mph 5.6 mph 68 % 0.0 in 137.0 W/m2 CLR
17:30 15.8 °F 9.9 °F 1031.4 in ENE 6.4 mph 6.4 mph 68 % 0.0 in 128.0 W/m2 CLR
17:35 15.7 °F 10.0 °F 1031.4 in ENE 5.6 mph 5.6 mph 69 % 0.0 in 113.0 W/m2 CLR
17:40 15.6 °F 9.9 °F 1031.4 in NE 7.4 mph 7.4 mph 69 % 0.0 in 88.0 W/m2 CLR
17:45 15.4 °F 10.0 °F 1031.4 in NE 8.0 mph 8.0 mph 70 % 0.0 in 70.0 W/m2 FEW
17:50 15.3 °F 9.8 °F 1031.7 in NE 12.9 mph 12.9 mph 70 % 0.0 in 58.0 W/m2 SCT
17:55 15.1 °F 9.9 °F 1031.7 in NE 5.6 mph 5.6 mph 71 % 0.0 in 49.0 W/m2 SCT
18:00 15.0 °F 9.8 °F 1031.7 in NE 5.6 mph 5.6 mph 71 % 0.0 in 39.0 W/m2 BKN
18:05 14.8 °F 9.8 °F 1031.7 in NNE 6.4 mph 6.4 mph 72 % 0.0 in 32.0 W/m2 BKN
18:10 14.7 °F 9.7 °F 1031.7 in NE 6.4 mph 6.4 mph 72 % 0.0 in 25.0 W/m2 BKN
18:15 14.6 °F 9.6 °F 1031.7 in Calm     72 % 0.0 in 18.0 W/m2 BKN
18:20 14.4 °F 9.7 °F 1031.7 in Calm     73 % 0.0 in 12.0 W/m2 BKN
18:25 14.3 °F 9.6 °F 1032.1 in Calm     73 % 0.0 in 7.0 W/m2 BKN
18:30 14.2 °F 9.6 °F 1032.1 in Calm     74 % 0.0 in 0.0 W/m2 OVC
18:35 14.1 °F 9.5 °F 1032.1 in Calm     74 % 0.0 in 0.0 W/m2 OVC
18:40 13.9 °F 9.6 °F 1032.1 in Calm     75 % 0.0 in 0.0 W/m2 OVC
18:45 13.8 °F 9.5 °F 1032.1 in Calm     75 % 0.0 in 0.0 W/m2 CLR
18:55 13.5 °F 9.3 °F 1032.1 in Calm     76 % 0.0 in 0.0 W/m2 CLR
19:00 13.3 °F 9.1 °F 1032.1 in Calm     76 % 0.0 in 0.0 W/m2 CLR
19:01 13.3 °F 9.1 °F 1032.1 in Calm     76 % 0.0 in 0.0 W/m2 CLR
19:05 13.2 °F 8.9 °F 1032.4 in Calm     75 % 0.0 in 0.0 W/m2 CLR
19:11 13.1 °F 9.2 °F 1032.4 in Calm     77 % 0.0 in 0.0 W/m2 CLR
19:16 12.8 °F 8.9 °F 1032.4 in Calm     77 % 0.0 in 0.0 W/m2 CLR
19:21 12.6 °F 8.8 °F 1032.4 in Calm     78 % 0.0 in 0.0 W/m2 CLR
19:26 12.3 °F 8.6 °F 1032.4 in Calm     78 % 0.0 in 0.0 W/m2 CLR
19:31 12.1 °F 8.6 °F 1032.4 in Calm     79 % 0.0 in 0.0 W/m2 CLR
19:36 11.9 °F 8.6 °F 1032.4 in Calm     80 % 0.0 in 0.0 W/m2 CLR
19:41 11.8 °F 8.6 °F 1032.7 in Calm     81 % 0.0 in 0.0 W/m2 CLR
19:46 11.4 °F 8.1 °F 1032.7 in Calm     80 % 0.0 in 0.0 W/m2 CLR
19:51 10.9 °F 8.0 °F 1032.7 in Calm     82 % 0.0 in 0.0 W/m2 CLR
19:56 10.4 °F 7.8 °F 1032.7 in Calm     84 % 0.0 in 0.0 W/m2 CLR
20:01 10.3 °F 7.9 °F 1032.7 in Calm     85 % 0.0 in 0.0 W/m2 CLR
20:06 10.3 °F 8.1 °F 1032.7 in Calm     86 % 0.0 in 0.0 W/m2 CLR
20:11 10.3 °F 8.1 °F 1033.1 in Calm     86 % 0.0 in 0.0 W/m2 CLR
20:16 10.3 °F 7.9 °F 1033.1 in Calm     85 % 0.0 in 0.0 W/m2 CLR
20:21 10.0 °F 7.6 °F 1033.1 in Calm     85 % 0.0 in 0.0 W/m2 CLR
20:26 9.8 °F 7.6 °F 1033.1 in Calm     86 % 0.0 in 0.0 W/m2 CLR
20:31 9.8 °F 7.7 °F 1033.1 in Calm     87 % 0.0 in 0.0 W/m2 CLR
20:36 9.7 °F 7.6 °F 1033.1 in Calm     87 % 0.0 in 0.0 W/m2 CLR
20:41 9.5 °F 7.4 °F 1033.1 in Calm     87 % 0.0 in 0.0 W/m2 CLR
20:46 9.4 °F 7.4 °F 1033.4 in Calm     87 % 0.0 in 0.0 W/m2 CLR
20:51 9.3 °F 7.3 °F 1033.4 in Calm     87 % 0.0 in 0.0 W/m2 CLR
20:56 9.3 °F 7.4 °F 1033.4 in Calm     88 % 0.0 in 0.0 W/m2 CLR
21:01 9.3 °F 7.2 °F 1033.4 in Calm     87 % 0.0 in 0.0 W/m2 CLR
21:06 9.1 °F 7.2 °F 1033.4 in Calm     88 % 0.0 in 0.0 W/m2 CLR
21:11 9.0 °F 7.1 °F 1033.4 in Calm     88 % 0.0 in 0.0 W/m2 CLR
21:16 8.9 °F 7.1 °F 1033.4 in Calm     88 % 0.0 in 0.0 W/m2 CLR
21:21 8.8 °F 6.9 °F 1033.7 in Calm     88 % 0.0 in 0.0 W/m2 CLR
21:26 8.7 °F 6.8 °F 1033.7 in Calm     88 % 0.0 in 0.0 W/m2 CLR
21:31 8.4 °F 6.6 °F 1033.7 in Calm     88 % 0.0 in 0.0 W/m2 CLR
21:36 8.3 °F 6.4 °F 1033.7 in Calm     88 % 0.0 in 0.0 W/m2 CLR
21:41 8.1 °F 6.2 °F 1033.7 in Calm     88 % 0.0 in 0.0 W/m2 CLR
21:46 7.9 °F 6.0 °F 1033.7 in Calm     88 % 0.0 in 0.0 W/m2 CLR
21:51 7.8 °F 6.1 °F 1033.7 in Calm     89 % 0.0 in 0.0 W/m2 CLR
21:56 7.7 °F 5.9 °F 1033.7 in Calm     89 % 0.0 in 0.0 W/m2 CLR
22:01 7.6 °F 6.0 °F 1034.1 in Calm     90 % 0.0 in 0.0 W/m2 CLR
22:06 7.4 °F 5.9 °F 1034.1 in Calm     90 % 0.0 in 0.0 W/m2 CLR
22:11 7.3 °F 5.8 °F 1034.1 in Calm     90 % 0.0 in 0.0 W/m2 CLR
22:16 7.2 °F 5.7 °F 1034.1 in Calm     90 % 0.0 in 0.0 W/m2 CLR
22:21 7.1 °F 5.6 °F 1034.1 in Calm     90 % 0.0 in 0.0 W/m2 CLR
22:26 7.0 °F 5.4 °F 1034.1 in Calm     90 % 0.0 in 0.0 W/m2 CLR
22:31 6.9 °F 5.4 °F 1034.1 in Calm     90 % 0.0 in 0.0 W/m2 CLR
22:36 6.7 °F 5.2 °F 1034.1 in Calm     90 % 0.0 in 0.0 W/m2 CLR
22:41 6.6 °F 5.2 °F 1034.1 in Calm     91 % 0.0 in 0.0 W/m2 CLR
22:46 6.5 °F 5.1 °F 1034.4 in Calm     91 % 0.0 in 0.0 W/m2 CLR
22:51 6.4 °F 5.0 °F 1034.4 in Calm     91 % 0.0 in 0.0 W/m2 CLR
22:56 6.3 °F 4.9 °F 1034.4 in Calm     91 % 0.0 in 0.0 W/m2 CLR
23:01 6.3 °F 4.9 °F 1034.4 in Calm     91 % 0.0 in 0.0 W/m2 CLR
23:06 6.3 °F 4.9 °F 1034.4 in Calm     91 % 0.0 in 0.0 W/m2 CLR
23:11 6.3 °F 5.1 °F 1034.4 in Calm     92 % 0.0 in 0.0 W/m2 CLR
23:16 6.4 °F 5.2 °F 1034.4 in Calm     92 % 0.0 in 0.0 W/m2 CLR
23:21 6.4 °F 5.2 °F 1034.4 in Calm     92 % 0.0 in 0.0 W/m2 CLR
23:26 6.2 °F 4.9 °F 1034.4 in Calm     91 % 0.0 in 0.0 W/m2 CLR
23:31 6.3 °F 5.1 °F 1034.4 in Calm     92 % 0.0 in 0.0 W/m2 CLR
23:36 6.3 °F 5.1 °F 1034.4 in Calm     92 % 0.0 in 0.0 W/m2 CLR
23:41 6.2 °F 5.0 °F 1034.4 in Calm     92 % 0.0 in 0.0 W/m2 CLR
23:46 6.2 °F 5.0 °F 1034.4 in Calm     92 % 0.0 in 0.0 W/m2 CLR
23:51 6.2 °F 5.0 °F 1034.4 in Calm     92 % 0.0 in 0.0 W/m2 CLR
23:56 6.1 °F 4.8 °F 1034.4 in Calm     92 % 0.0 in 0.0 W/m2 CLR
Lo Temps de Massalio
Compliments of Weather Underground - 1.25 mb